Flight Track Log - Related Links

Times and Time Zones

All times are in EDT time to prevent confusion due to time zone crossing. See the EJA831 flight status page for this flight to view local times or setup timezone preferences in your user account.

Time Position Orientation Groundspeed Altitude Reporting Facility
EDT Latitude Longitude Course Direction KTS MPH feet Rate Location/Type
Sat 02:11:17 PM 35.4639 -82.6083 223° Southwest 206 237 9,100  Level Atlanta Center
Sat 02:12:17 PM 35.4061 -82.6756 223° Southwest 319 367 10,100 500 Climbing Atlanta Center
Sat 02:13:17 PM 35.3400 -82.7353 216° Southwest 346 398 10,100  Level Atlanta Center
Sat 02:14:17 PM 35.2614 -82.8000 214° Southwest 352 405 10,100 500 Level Atlanta Center
Sat 02:15:17 PM 35.1869 -82.8697 217° Southwest 352 405 11,100 1,650 Climbing Atlanta Center
Sat 02:16:17 PM 35.1083 -82.9369 215° Southwest 352 405 13,400 2,400 Climbing Atlanta Center
Sat 02:17:17 PM 35.0275 -83.0089 216° Southwest 352 405 15,900 2,200 Climbing Atlanta Center
Sat 02:18:17 PM 34.9508 -83.0758 216° Southwest 352 405 17,800 1,050 Climbing Atlanta Center
Sat 02:19:17 PM 34.8636 -83.1478 214° Southwest 362 417 18,000 100 Climbing Atlanta Center
Sat 02:20:17 PM 34.8019 -83.2597 236° Southwest 357 411 18,000  Level Atlanta Center
Sat 02:21:17 PM 34.7900 -83.3811 263° West 345 397 18,000  Level Atlanta Center
Sat 02:22:17 PM 34.7803 -83.5000 264° West 358 412 18,000  Level Atlanta Center
Sat 02:23:17 PM 34.7347 -83.5864 237° Southwest 338 389 18,000  Level Atlanta Center
Sat 02:24:17 PM 34.6431 -83.6575 213° Southwest 338 389 18,000  Level Atlanta Center
Sat 02:25:17 PM 34.5514 -83.7186 209° Southwest 361 415 18,000  Level Atlanta Center
Sat 02:26:17 PM 34.4578 -83.7769 207° Southwest 373 429 18,000 -250 Level Atlanta Center
Sat 02:27:17 PM 34.3722 -83.8400 211° Southwest 373 429 17,500 -1,450 Descending Atlanta Center
Sat 02:28:17 PM 34.2847 -83.8981 209° Southwest 368 423 15,100 -2,200 Descending Atlanta Center
Sat 02:29:17 PM 34.1992 -83.9558 209° Southwest 362 417 13,100 -1,400 Descending Atlanta Center
Sat 02:30:17 PM 34.1219 -84.0036 207° Southwest 331 381 12,300 -1,152 Descending Atlanta Center
Sat 02:30:56 PM 34.0667 -84.0333 204° Southwest 308 354 11,200 -1,636 Descending Atlanta TRACON
Sat 02:31:56 PM 34.0000 -84.0667 203° Southwest 289 333 9,600 -1,100 Descending Atlanta TRACON
Sat 02:32:56 PM 33.9167 -84.0833 189° South 290 334 9,000 -952 Descending Atlanta TRACON
Sat 02:34:02 PM 33.8333 -84.1000 189° South 296 341 7,600 -1,381 Descending Atlanta TRACON
Sat 02:35:02 PM 33.7500 -84.1000 180° South 284 327 6,100 -1,300 Descending Atlanta TRACON
Sat 02:36:02 PM 33.6833 -84.1333 203° Southwest 253 291 5,000 -574 Descending Atlanta TRACON
Sat 02:36:57 PM 33.6500 -84.1833 231° Southwest 191 220 5,000 -574 Level Atlanta TRACON
Sat 02:37:57 PM 33.6500 -84.2500 270° West 174 200 3,900 -1,150 Descending Atlanta TRACON
Sat 02:38:57 PM 33.6500 -84.3000 270° West 168 193 2,700 -1,000 Descending Atlanta TRACON
Sat 02:39:57 PM 33.6500 -84.3500 270° West 156 180 1,900 -750 Descending Atlanta TRACON
Sat 02:40:57 PM 33.6500 -84.4000 270° West 120 138 1,200 -700 Descending Atlanta TRACON
Sat 02:42:00 PM 33.6367 -84.4279 270° West  Level Estimated
Sat 02:49:00 PM 33.6367 -84.4279 103° East  Level Estimated
Sat 02:50:00 PM 33.6367 -84.4279 103° East  Level Estimated

Login

Don't have an account? Register now (free) for customized features, flight alerts, and more!